Time;durP1;ratioP1;P1;durP2;ratioP2;P2;SDS_P1;SDS_P2;PMS_P1;PMS_P2;Temp;Humidity;BMP_temperature;BMP_pressure;BME280_temperature;BME280_humidity;BME280_pressure;Samples;Min_cycle;Max_cycle;Signal;HPM_P1;HPM_P2
2023/01/20 00:01:02;;;;;;;39.92;15.95;;;;;;;-1.58;100.00;100031.25;6306225;28;20040;-89
2023/01/20 00:04:05;;;;;;;33.72;15.13;;;;;;;-1.60;100.00;100030.47;6308175;28;20066;-89
2023/01/20 00:07:07;;;;;;;38.72;15.27;;;;;;;-1.60;100.00;100040.63;6307248;28;20338;-89
2023/01/20 00:10:10;;;;;;;32.50;15.30;;;;;;;-1.61;100.00;100035.63;6309475;28;20039;-89
2023/01/20 00:13:12;;;;;;;35.05;15.57;;;;;;;-1.59;100.00;100044.84;6300812;28;20549;-89
2023/01/20 00:16:14;;;;;;;34.65;15.63;;;;;;;-1.59;100.00;100044.84;6299924;28;20509;-89
2023/01/20 00:19:16;;;;;;;38.42;17.17;;;;;;;-1.61;100.00;100044.06;6302740;28;20481;-89
2023/01/20 00:22:17;;;;;;;36.60;16.17;;;;;;;-1.62;100.00;100050.00;6297096;28;20485;-89
2023/01/20 00:25:19;;;;;;;32.80;15.27;;;;;;;-1.63;100.00;100048.38;6298937;28;20044;-89
2023/01/20 00:28:21;;;;;;;38.85;17.23;;;;;;;-1.63;100.00;100061.06;6305762;28;20131;-89
2023/01/20 00:31:26;;;;;;;40.63;16.23;;;;;;;-1.65;100.00;100062.00;6305298;28;20051;-89
2023/01/20 00:34:28;;;;;;;38.30;15.98;;;;;;;-1.68;100.00;100062.94;6305987;28;20044;-88
2023/01/20 00:37:29;;;;;;;37.92;16.20;;;;;;;-1.69;100.00;100068.91;6306855;28;20097;-89
2023/01/20 00:40:31;;;;;;;36.35;16.13;;;;;;;-1.73;100.00;100065.63;6300703;28;20286;-89
2023/01/20 00:43:36;;;;;;;42.88;16.63;;;;;;;-1.76;100.00;100080.16;6300797;28;20305;-89
2023/01/20 00:46:37;;;;;;;39.35;16.90;;;;;;;-1.81;100.00;100077.75;6306089;28;20048;-88
2023/01/20 00:49:39;;;;;;;38.90;16.95;;;;;;;-1.81;100.00;100077.75;6308447;28;20041;-89
2023/01/20 00:52:41;;;;;;;42.03;17.45;;;;;;;-1.83;100.00;100078.69;6306507;28;20055;-89
2023/01/20 00:55:43;;;;;;;36.78;16.60;;;;;;;-1.83;100.00;100086.31;6305854;28;20040;-89
2023/01/20 00:58:45;;;;;;;38.33;15.98;;;;;;;-1.82;100.00;100088.78;6302733;28;20572;-89
2023/01/20 01:01:46;;;;;;;35.72;15.75;;;;;;;-1.87;100.00;100093.19;6308608;28;20040;-89
2023/01/20 01:04:49;;;;;;;36.53;16.13;;;;;;;-1.91;100.00;100094.19;6306365;28;20044;-89
2023/01/20 01:07:51;;;;;;;37.33;16.33;;;;;;;-1.90;100.00;100100.09;6309081;28;20048;-89
2023/01/20 01:10:54;;;;;;;38.60;16.45;;;;;;;-1.92;100.00;100100.13;6312924;28;20461;-89
2023/01/20 01:13:56;;;;;;;39.67;17.05;;;;;;;-1.92;100.00;100104.38;6311731;28;20410;-88
2023/01/20 01:16:58;;;;;;;39.63;16.50;;;;;;;-1.95;100.00;100105.31;6312079;28;20043;-89
2023/01/20 01:20:00;;;;;;;41.83;17.20;;;;;;;-1.96;100.00;100107.03;6312849;28;20036;-89
2023/01/20 01:23:01;;;;;;;35.78;17.40;;;;;;;-1.97;100.00;100107.88;6296938;28;20404;-89
2023/01/20 01:26:04;;;;;;;33.42;14.90;;;;;;;-1.97;100.00;100122.28;6311046;28;20044;-89
2023/01/20 01:29:05;;;;;;;39.28;16.88;;;;;;;-1.97;100.00;100120.56;6309179;28;20071;-89
2023/01/20 01:32:07;;;;;;;39.28;16.90;;;;;;;-1.97;100.00;100124.81;6307329;28;20043;-88
2023/01/20 01:35:09;;;;;;;38.20;16.77;;;;;;;-1.96;100.00;100127.31;6310381;28;20036;-89
2023/01/20 01:38:11;;;;;;;35.45;16.23;;;;;;;-1.99;100.00;100132.50;6306464;28;20051;-89
2023/01/20 01:41:14;;;;;;;38.75;16.38;;;;;;;-1.98;100.00;100129.06;6303586;28;20043;-89
2023/01/20 01:44:15;;;;;;;31.48;15.20;;;;;;;-1.96;100.00;100129.84;6300778;28;20029;-89
2023/01/20 01:47:18;;;;;;;36.40;15.00;;;;;;;-1.99;100.00;100124.88;6309051;28;20035;-89
2023/01/20 01:50:29;;;;;;;32.38;15.68;;;;;;;-1.99;100.00;100124.88;6310767;28;20413;-89
2023/01/20 01:53:32;;;;;;;;;;;;;;;-2.06;100.00;100123.44;6302698;28;20405;-89
2023/01/20 01:56:40;;;;;;;37.92;15.27;;;;;;;-2.04;100.00;100126.72;6315621;28;20393;-89
2023/01/20 01:59:42;;;;;;;29.83;14.00;;;;;;;-2.07;100.00;100131.91;6303931;28;20044;-89
2023/01/20 02:02:44;;;;;;;32.20;15.15;;;;;;;-2.11;100.00;100139.66;6293149;28;20194;-89
2023/01/20 02:05:49;;;;;;;34.08;14.77;;;;;;;-2.14;100.00;100125.38;6304228;28;20493;-89
2023/01/20 02:08:51;;;;;;;36.92;14.60;;;;;;;-2.17;100.00;100130.56;6311456;28;20035;-90
2023/01/20 02:11:59;;;;;;;33.15;14.93;;;;;;;-2.19;100.00;100130.63;6297280;28;20044;-90
2023/01/20 02:15:02;;;;;;;33.17;13.95;;;;;;;-2.15;100.00;100138.94;6300783;28;20081;-90
2023/01/20 02:18:27;;;;;;;33.03;14.70;;;;;;;-2.14;100.00;100144.84;6298657;28;20044;-90
2023/01/20 02:22:03;;;;;;;34.90;14.07;;;;;;;-2.15;100.00;100144.00;6291600;28;20096;-89
2023/01/20 02:25:42;;;;;;;37.13;14.63;;;;;;;-2.15;100.00;100144.00;6303341;28;20450;-89
2023/01/20 02:28:46;;;;;;;33.75;13.65;;;;;;;-2.19;100.00;100153.44;6295299;28;20151;-89
2023/01/20 02:32:14;;;;;;;35.13;14.18;;;;;;;-2.19;100.00;100155.13;6310525;28;20039;-89
2023/01/20 02:35:54;;;;;;;35.72;14.52;;;;;;;-2.22;100.00;100160.28;6305695;28;20137;-90
2023/01/20 02:39:02;;;;;;;34.90;14.60;;;;;;;-2.21;100.00;100167.00;6308845;28;20075;-90
2023/01/20 02:42:18;;;;;;;40.22;15.63;;;;;;;-2.23;100.00;100171.31;6307973;28;20028;-89
2023/01/20 02:45:22;;;;;;;34.50;14.80;;;;;;;-2.22;100.00;100173.78;6298350;28;20032;-89
2023/01/20 02:48:43;;;;;;;38.75;15.18;;;;;;;-2.20;100.00;100176.28;6309532;28;20489;-89
2023/01/20 02:51:50;;;;;;;36.57;15.07;;;;;;;-2.22;100.00;100172.97;6309885;28;20497;-89
2023/01/20 02:54:55;;;;;;;36.88;14.27;;;;;;;-2.25;100.00;100178.97;6304228;28;20040;-89
2023/01/20 02:58:07;;;;;;;37.90;15.45;;;;;;;-2.26;100.00;100176.47;6306063;28;20040;-89
2023/01/20 03:01:21;;;;;;;36.53;15.00;;;;;;;-2.30;100.00;100180.81;6304054;28;20039;-90
2023/01/20 03:04:29;;;;;;;30.67;14.07;;;;;;;-2.31;100.00;100186.78;6298367;28;20048;-89
2023/01/20 03:07:34;;;;;;;39.83;14.55;;;;;;;-2.34;100.00;100179.25;6302228;28;20044;-89
2023/01/20 03:10:41;;;;;;;36.80;15.75;;;;;;;-2.34;100.00;100186.03;6302801;28;20067;-89
2023/01/20 03:14:04;;;;;;;38.30;15.95;;;;;;;-2.32;100.00;100185.09;6304969;28;20544;-89
2023/01/20 03:17:05;;;;;;;32.63;14.80;;;;;;;-2.34;100.00;100191.91;6300042;28;20044;-89
2023/01/20 03:20:08;;;;;;;41.28;16.50;;;;;;;-2.33;100.00;100186.00;6307141;28;20074;-89
2023/01/20 03:23:10;;;;;;;32.25;14.25;;;;;;;-2.39;100.00;100176.84;6300673;28;20518;-89
2023/01/20 03:26:14;;;;;;;36.90;14.82;;;;;;;-2.38;100.00;100188.66;6308093;28;20050;-89
2023/01/20 03:29:17;;;;;;;30.77;14.15;;;;;;;-2.41;100.00;100185.38;6301300;28;20039;-89
2023/01/20 03:32:25;;;;;;;30.38;13.20;;;;;;;-2.43;100.00;100194.75;6299725;28;20482;-90
2023/01/20 03:35:27;;;;;;;32.97;13.82;;;;;;;-2.45;100.00;100199.88;6298615;28;20044;-89
2023/01/20 03:38:29;;;;;;;35.17;14.35;;;;;;;-2.43;100.00;100204.91;6298615;28;20047;-90
2023/01/20 03:41:58;;;;;;;32.35;14.43;;;;;;;-2.47;100.00;100205.84;6309091;28;20032;-89
2023/01/20 03:45:35;;;;;;;31.60;13.00;;;;;;;-2.49;100.00;100216.03;6300053;28;20044;-89
2023/01/20 03:48:56;;;;;;;31.98;13.88;;;;;;;-2.47;100.00;100224.41;6289269;28;20040;-89
2023/01/20 03:52:25;;;;;;;30.85;13.10;;;;;;;-2.45;100.00;100230.28;6225643;28;20049;-89
2023/01/20 03:56:14;;;;;;;35.03;14.70;;;;;;;-2.41;100.00;100228.47;6202163;28;20559;-89
2023/01/20 03:59:23;;;;;;;30.75;13.50;;;;;;;-2.42;100.00;100234.41;6229602;28;20103;-89
2023/01/20 04:02:27;;;;;;;32.25;14.20;;;;;;;-2.42;100.00;100242.84;6226391;28;20097;-89
2023/01/20 04:05:29;;;;;;;35.60;14.40;;;;;;;-2.41;100.00;100236.06;6228714;28;20088;-89
2023/01/20 04:08:43;;;;;;;31.85;14.02;;;;;;;-2.39;100.00;100242.75;6226120;28;20068;-89
2023/01/20 04:11:45;;;;;;;31.15;13.43;;;;;;;-2.40;100.00;100243.63;6225811;28;20049;-89
2023/01/20 04:14:47;;;;;;;29.95;12.85;;;;;;;-2.38;100.00;100246.13;6213637;28;20423;-89
2023/01/20 04:17:49;;;;;;;31.60;14.70;;;;;;;-2.41;100.00;100242.00;6231390;28;20061;-88
2023/01/20 04:20:56;;;;;;;30.73;12.20;;;;;;;-2.44;100.00;100244.59;6207569;28;20046;-89
2023/01/20 04:24:10;;;;;;;31.80;13.93;;;;;;;-2.45;100.00;100242.13;6219893;28;20536;-88
2023/01/20 04:27:12;;;;;;;32.25;13.35;;;;;;;-2.46;100.00;100248.91;6213861;28;20042;-88
2023/01/20 04:30:14;;;;;;;28.25;12.85;;;;;;;-2.50;100.00;100251.56;6292662;28;20563;-88
2023/01/20 04:33:16;;;;;;;26.52;12.43;;;;;;;-2.52;100.00;100259.19;6308591;28;20044;-89
2023/01/20 04:36:17;;;;;;;29.25;13.35;;;;;;;-2.56;100.00;100260.16;6310101;28;20049;-88
2023/01/20 04:39:19;;;;;;;29.23;13.77;;;;;;;-2.59;100.00;100262.78;6303851;28;20464;-88
2023/01/20 04:42:21;;;;;;;25.88;12.10;;;;;;;-2.57;100.00;100267.81;6297378;28;20039;-88
2023/01/20 04:45:23;;;;;;;31.40;13.10;;;;;;;-2.60;100.00;100279.69;6315261;28;20048;-89
2023/01/20 04:48:25;;;;;;;31.02;13.40;;;;;;;-2.61;100.00;100279.72;6304759;28;20032;-88
2023/01/20 04:51:27;;;;;;;32.90;14.35;;;;;;;-2.58;100.00;100283.88;6312236;28;20044;-88
2023/01/20 04:54:28;;;;;;;27.30;11.80;;;;;;;-2.56;100.00;100285.50;6307679;28;20044;-88
2023/01/20 04:57:30;;;;;;;28.17;11.38;;;;;;;-2.54;100.00;100288.81;6313287;28;20067;-88
2023/01/20 05:00:32;;;;;;;24.30;11.23;;;;;;;-2.54;100.00;100285.47;6314018;28;20067;-88
2023/01/20 05:03:35;;;;;;;29.67;13.00;;;;;;;-2.53;100.00;100280.38;6309805;28;20151;-88
2023/01/20 05:06:37;;;;;;;33.85;15.07;;;;;;;-2.54;100.00;100275.31;6313454;28;20050;-88
2023/01/20 05:09:39;;;;;;;31.20;12.95;;;;;;;-2.56;100.00;100282.97;6310291;28;20051;-88
2023/01/20 05:12:40;;;;;;;29.13;13.40;;;;;;;-2.61;100.00;100289.88;6309448;28;20048;-88
2023/01/20 05:15:43;;;;;;;30.42;12.63;;;;;;;-2.63;100.00;100292.47;6313592;28;20040;-88
2023/01/20 05:18:45;;;;;;;28.52;13.05;;;;;;;-2.61;100.00;100290.72;6310253;28;20405;-88
2023/01/20 05:21:47;;;;;;;29.55;12.50;;;;;;;-2.63;100.00;100296.72;6306443;28;20086;-88
2023/01/20 05:24:49;;;;;;;34.25;13.32;;;;;;;-2.59;100.00;100303.31;6307785;28;20051;-88
2023/01/20 05:27:51;;;;;;;29.15;13.93;;;;;;;-2.58;100.00;100299.94;6313618;28;20052;-88
2023/01/20 05:30:53;;;;;;;28.63;12.55;;;;;;;-2.55;100.00;100307.44;6299362;28;20048;-88
2023/01/20 05:33:55;;;;;;;31.92;13.52;;;;;;;-2.48;100.00;100308.94;6307959;28;20075;-88
2023/01/20 05:36:57;;;;;;;30.75;12.68;;;;;;;-2.42;100.00;100310.44;6304547;28;20048;-88
2023/01/20 05:39:58;;;;;;;34.97;14.00;;;;;;;-2.39;100.00;100318.78;6312551;28;20119;-88
2023/01/20 05:43:01;;;;;;;32.65;13.90;;;;;;;-2.38;100.00;100320.47;6311372;28;20051;-88
2023/01/20 05:46:04;;;;;;;35.03;13.38;;;;;;;-2.39;100.00;100312.88;6301554;28;20890;-88
2023/01/20 05:49:06;;;;;;;33.00;13.73;;;;;;;-2.31;100.00;100316.06;6304216;28;20271;-88
2023/01/20 05:52:08;;;;;;;33.88;13.95;;;;;;;-2.25;100.00;100320.09;6312634;28;20393;-88
2023/01/20 05:55:09;;;;;;;35.97;15.38;;;;;;;-2.28;100.00;100322.75;6306841;28;20036;-88
2023/01/20 05:58:12;;;;;;;35.92;16.05;;;;;;;-2.31;100.00;100330.41;6309715;28;20039;-88
2023/01/20 06:01:14;;;;;;;32.47;15.43;;;;;;;-2.35;100.00;100333.94;6309870;28;20092;-88
2023/01/20 06:04:16;;;;;;;43.35;16.85;;;;;;;-2.35;100.00;100336.47;6313399;28;20127;-88
2023/01/20 06:07:18;;;;;;;40.22;14.93;;;;;;;-2.34;100.00;100344.00;6311297;28;20048;-88
2023/01/20 06:10:20;;;;;;;38.53;15.48;;;;;;;-2.26;100.00;100349.69;6309469;28;20429;-88
2023/01/20 06:13:22;;;;;;;34.50;16.27;;;;;;;-2.13;100.00;100350.16;6307282;28;20040;-88
2023/01/20 06:16:24;;;;;;;39.90;16.50;;;;;;;-2.02;100.00;100354.91;6312193;28;20581;-88
2023/01/20 06:19:26;;;;;;;37.33;16.08;;;;;;;-1.95;100.00;100356.38;6312619;28;20063;-88
2023/01/20 06:22:27;;;;;;;38.38;15.25;;;;;;;-1.90;100.00;100362.16;6313244;28;20036;-88
2023/01/20 06:25:29;;;;;;;41.03;16.58;;;;;;;-1.90;100.00;100358.78;6312655;28;20059;-88
2023/01/20 06:28:31;;;;;;;35.80;16.17;;;;;;;-1.99;100.00;100362.41;6312913;28;20506;-88
2023/01/20 06:31:34;;;;;;;40.35;16.67;;;;;;;-2.11;100.00;100367.84;6312137;28;20387;-88
2023/01/20 06:34:36;;;;;;;32.88;15.88;;;;;;;-2.20;100.00;100368.97;6311777;28;20482;-88
2023/01/20 06:37:38;;;;;;;37.47;17.50;;;;;;;-2.28;100.00;100376.78;6313254;28;20048;-88
2023/01/20 06:40:40;;;;;;;35.75;17.88;;;;;;;-2.27;100.00;100383.50;6313463;28;20051;-88
2023/01/20 06:43:42;;;;;;;43.35;17.02;;;;;;;-2.23;100.00;100380.03;6311054;28;20451;-88
2023/01/20 06:46:44;;;;;;;36.10;16.85;;;;;;;-2.15;100.00;100392.47;6309638;28;20040;-88
2023/01/20 06:49:48;;;;;;;43.50;18.05;;;;;;;-2.03;100.00;100387.06;6311130;28;20490;-88
2023/01/20 06:52:52;;;;;;;38.17;17.33;;;;;;;-1.92;100.00;100394.34;6311157;28;20040;-88
2023/01/20 06:55:56;;;;;;;42.38;17.95;;;;;;;-1.86;100.00;100396.72;6310321;28;20079;-88
2023/01/20 06:58:58;;;;;;;43.40;17.45;;;;;;;-1.81;100.00;100391.50;6309389;28;20499;-88
2023/01/20 07:02:01;;;;;;;38.53;17.70;;;;;;;-1.73;100.00;100397.16;6311492;28;20032;-88
2023/01/20 07:05:07;;;;;;;43.17;17.40;;;;;;;-1.73;100.00;100399.72;6302912;28;20043;-88
2023/01/20 07:08:09;;;;;;;35.40;17.80;;;;;;;-1.72;100.00;100406.44;6307212;28;20036;-88
2023/01/20 07:11:11;;;;;;;40.85;16.17;;;;;;;-1.71;100.00;100408.09;6308619;28;20170;-88
2023/01/20 07:14:14;;;;;;;37.35;16.60;;;;;;;-1.74;100.00;100410.72;6309481;28;20052;-88
2023/01/20 07:17:16;;;;;;;36.90;16.23;;;;;;;-1.76;100.00;100417.56;6308817;28;20248;-88
2023/01/20 07:20:18;;;;;;;42.90;16.30;;;;;;;-1.79;100.00;100420.16;6297233;28;20039;-88
2023/01/20 07:23:20;;;;;;;35.08;15.52;;;;;;;-1.84;100.00;100427.94;6308304;28;20041;-88
2023/01/20 07:26:25;;;;;;;41.83;16.05;;;;;;;-1.84;100.00;100433.00;6301653;28;20051;-88
2023/01/20 07:29:28;;;;;;;38.72;15.07;;;;;;;-1.86;100.00;100438.97;6302883;28;20044;-88
2023/01/20 07:32:30;;;;;;;36.20;16.38;;;;;;;-1.92;100.00;100445.06;6308309;28;20052;-87
2023/01/20 07:35:32;;;;;;;36.72;16.17;;;;;;;-1.97;100.00;100442.66;6305538;28;20040;-87
2023/01/20 07:38:34;;;;;;;37.33;16.08;;;;;;;-2.07;100.00;100448.03;6303728;28;20528;-87
2023/01/20 07:41:36;;;;;;;32.17;15.80;;;;;;;-2.12;100.00;100460.84;6307551;28;20040;-87
2023/01/20 07:44:39;;;;;;;40.00;15.93;;;;;;;-2.13;100.00;100466.81;6307406;28;20115;-87
2023/01/20 07:47:41;;;;;;;37.42;16.50;;;;;;;-2.19;100.00;100475.41;6309794;28;20067;-87
2023/01/20 07:50:43;;;;;;;37.83;16.13;;;;;;;-1.97;100.00;100483.25;6311252;28;20035;-88
2023/01/20 07:53:50;;;;;;;36.55;16.95;;;;;;;-2.00;100.00;100485.03;6311252;28;20044;-88
2023/01/20 07:56:52;;;;;;;37.05;17.15;;;;;;;-2.04;100.00;100493.59;6309361;28;20078;-87
2023/01/20 07:59:54;;;;;;;35.20;15.90;;;;;;;-2.08;100.00;100495.41;6304295;28;20040;-88
2023/01/20 08:02:55;;;;;;;38.85;17.27;;;;;;;-2.08;100.00;100489.50;6291600;28;20043;-88
2023/01/20 08:06:01;;;;;;;33.50;14.63;;;;;;;-2.08;100.00;100492.88;6306569;28;20071;-88
2023/01/20 08:09:03;;;;;;;35.00;15.05;;;;;;;-2.10;100.00;100492.06;6309636;28;20044;-88
2023/01/20 08:12:05;;;;;;;36.97;16.63;;;;;;;-2.09;100.00;100501.31;6305861;28;20036;-88
2023/01/20 08:15:08;;;;;;;37.28;16.58;;;;;;;-2.09;100.00;100493.72;6288377;28;20257;-88
2023/01/20 08:18:10;;;;;;;43.13;17.08;;;;;;;-2.00;100.00;100501.09;6314437;28;20040;-88
2023/01/20 08:21:21;;;;;;;39.20;17.23;;;;;;;-1.88;100.00;100505.00;6313199;28;20517;-88
2023/01/20 08:24:23;;;;;;;39.92;17.45;;;;;;;-1.81;100.00;100511.56;6317122;28;20456;-88
2023/01/20 08:27:25;;;;;;;35.58;15.65;;;;;;;-1.76;100.00;100512.25;6316077;28;20047;-88
2023/01/20 08:30:27;;;;;;;43.95;16.95;;;;;;;-1.73;100.00;100507.09;6315871;28;20052;-88
2023/01/20 08:33:28;;;;;;;38.83;16.67;;;;;;;-1.69;100.00;100518.00;6311222;28;20043;-88
2023/01/20 08:36:33;;;;;;;41.03;17.77;;;;;;;-1.69;100.00;100517.16;6308608;28;20406;-88
2023/01/20 08:39:38;;;;;;;35.85;16.77;;;;;;;-1.69;100.00;100520.53;6313725;28;20051;-88
2023/01/20 08:42:40;;;;;;;38.97;17.35;;;;;;;-1.65;100.00;100532.25;6315954;28;20134;-88
2023/01/20 08:45:42;;;;;;;34.83;16.05;;;;;;;-1.66;100.00;100530.59;6293613;28;20048;-88
2023/01/20 08:48:44;;;;;;;38.20;17.27;;;;;;;-1.68;100.00;100534.88;6312779;28;20397;-88
2023/01/20 08:51:46;;;;;;;30.58;15.45;;;;;;;-1.70;100.00;100540.88;6309153;28;20036;-88
2023/01/20 08:54:51;;;;;;;33.83;14.75;;;;;;;-1.72;100.00;100543.44;6308182;28;20137;-88
2023/01/20 08:57:53;;;;;;;34.60;15.68;;;;;;;-1.74;100.00;100546.03;6312002;28;20112;-88
2023/01/20 09:00:55;;;;;;;31.88;14.50;;;;;;;-1.70;100.00;100551.03;6308147;28;20111;-88
2023/01/20 09:03:58;;;;;;;30.40;14.23;;;;;;;-1.64;100.00;100561.84;6313671;28;20032;-88
2023/01/20 09:07:11;;;;;;;33.60;15.48;;;;;;;-1.56;100.00;100565.00;6312984;28;20055;-88
2023/01/20 09:10:13;;;;;;;33.20;16.25;;;;;;;-1.42;100.00;100568.84;6311778;28;20096;-88
2023/01/20 09:13:15;;;;;;;40.08;16.63;;;;;;;-1.32;100.00;100575.31;6310731;28;20047;-88
2023/01/20 09:16:18;;;;;;;36.90;16.73;;;;;;;-1.28;100.00;100573.53;6312804;28;20040;-88
2023/01/20 09:19:20;;;;;;;38.85;16.05;;;;;;;-1.28;100.00;100568.44;6315747;28;20462;-88
2023/01/20 09:22:22;;;;;;;31.55;15.18;;;;;;;-1.25;100.00;100579.31;6294535;28;20043;-89
2023/01/20 09:25:23;;;;;;;36.15;16.15;;;;;;;-1.26;100.00;100576.84;6302106;28;20059;-88
2023/01/20 09:28:26;;;;;;;35.55;14.73;;;;;;;-1.27;100.00;100580.25;6305017;28;20047;-88
2023/01/20 09:31:31;;;;;;;33.03;15.30;;;;;;;-1.29;100.00;100580.31;6305029;28;20036;-88
2023/01/20 09:34:33;;;;;;;29.10;14.15;;;;;;;-1.25;100.00;100593.75;6312498;28;20485;-88
2023/01/20 09:44:44;;;;;;;33.72;14.40;;;;;;;-1.16;100.00;100593.47;6305067;28;20568;-88
2023/01/20 09:47:47;;;;;;;32.60;15.48;;;;;;;-1.08;100.00;100607.59;6307057;28;20047;-88
2023/01/20 09:54:28;;;;;;;32.75;14.30;;;;;;;-0.95;100.00;100613.16;6310816;28;20036;-88
2023/01/20 09:57:36;;;;;;;30.38;13.57;;;;;;;-0.94;100.00;100616.53;6311807;28;20047;-88
2023/01/20 10:00:43;;;;;;;27.58;13.75;;;;;;;-0.94;100.00;100619.09;6310312;28;20040;-89
2023/01/20 10:04:16;;;;;;;29.35;13.57;;;;;;;-0.94;100.00;100624.16;6311791;28;20125;-89
2023/01/20 10:07:40;;;;;;;29.83;13.50;;;;;;;-0.95;100.00;100618.22;6308731;28;20044;-88
2023/01/20 10:10:51;;;;;;;34.60;13.88;;;;;;;-0.95;100.00;100625.03;6306573;28;20055;-89
2023/01/20 10:14:03;;;;;;;30.00;14.52;;;;;;;-0.93;100.00;100624.09;6307312;28;20429;-89
2023/01/20 10:17:36;;;;;;;30.67;12.85;;;;;;;-0.90;100.00;100625.72;6295695;28;20046;-89
2023/01/20 10:20:46;;;;;;;27.83;12.75;;;;;;;-0.78;100.00;100625.34;6306657;28;20123;-89
2023/01/20 10:23:51;;;;;;;28.42;12.43;;;;;;;-0.72;100.00;100627.72;6313825;28;20413;-89
2023/01/20 10:27:02;;;;;;;29.08;12.23;;;;;;;-0.67;100.00;100630.94;6311772;28;20074;-89
2023/01/20 10:30:14;;;;;;;30.50;12.52;;;;;;;-0.68;100.00;100626.72;6313351;28;20051;-89
2023/01/20 10:33:34;;;;;;;26.90;13.45;;;;;;;-0.68;100.00;100630.97;6304053;28;20580;-90
2023/01/20 10:36:40;;;;;;;25.00;11.85;;;;;;;-0.69;100.00;100624.25;6302512;28;20048;-90
2023/01/20 10:39:51;;;;;;;25.88;12.48;;;;;;;-0.70;100.00;100625.94;6300198;28;20044;-89
2023/01/20 10:42:58;;;;;;;30.33;14.07;;;;;;;-0.70;100.00;100620.84;6304361;28;20394;-90
2023/01/20 10:46:15;;;;;;;27.02;12.27;;;;;;;-0.66;100.00;100624.16;6306153;28;20068;-90
2023/01/20 10:49:29;;;;;;;25.17;11.57;;;;;;;-0.66;100.00;100624.97;6308296;28;20033;-91
2023/01/20 10:52:45;;;;;;;24.55;11.45;;;;;;;-0.57;100.00;100628.97;6325524;28;20518;-90
2023/01/20 10:56:16;;;;;;;25.42;11.52;;;;;;;-0.57;100.00;100635.72;6309728;28;20051;-90
2023/01/20 10:59:53;;;;;;;29.45;13.13;;;;;;;-0.57;100.00;100639.13;6311176;28;20043;-90
2023/01/20 11:02:57;;;;;;;26.77;12.23;;;;;;;-0.55;100.00;100637.34;6208803;28;20057;-90
2023/01/20 11:06:00;;;;;;;27.25;13.35;;;;;;;-0.51;100.00;100644.00;6210089;28;20122;-90
2023/01/20 11:09:19;;;;;;;26.80;12.55;;;;;;;-0.46;100.00;100651.50;6193367;28;20054;-90
2023/01/20 11:12:26;;;;;;;26.48;12.45;;;;;;;-0.46;100.00;100654.03;6194862;28;20050;-90
2023/01/20 11:15:32;;;;;;;26.33;12.77;;;;;;;-0.43;100.00;100657.28;6205615;28;20087;-91
2023/01/20 11:18:34;;;;;;;24.65;11.48;;;;;;;-0.40;100.00;100661.44;6208989;28;20045;-91
2023/01/20 11:21:36;;;;;;;23.55;12.00;;;;;;;-0.37;100.00;100661.38;6208320;28;20499;-90
2023/01/20 11:24:42;;;;;;;27.88;12.50;;;;;;;-0.35;100.00;100667.22;6209580;28;20695;-90
2023/01/20 11:27:46;;;;;;;23.65;11.68;;;;;;;-0.32;100.00;100676.50;6208701;28;20519;-90
2023/01/20 11:30:54;;;;;;;26.77;12.57;;;;;;;-0.31;100.00;100678.97;6192506;28;20452;-90
2023/01/20 11:33:58;;;;;;;26.83;12.00;;;;;;;-0.27;100.00;100682.28;6209263;28;20566;-90
2023/01/20 11:37:04;;;;;;;26.23;12.82;;;;;;;-0.22;100.00;100683.78;6189551;28;20447;-90
2023/01/20 11:40:26;;;;;;;23.60;11.70;;;;;;;-0.11;100.00;100688.53;6267560;28;20397;-90
2023/01/20 11:43:36;;;;;;;26.20;12.48;;;;;;;0.06;100.00;100690.53;6302027;28;20040;-90
2023/01/20 11:46:38;;;;;;;27.47;12.87;;;;;;;0.41;100.00;100699.50;6304137;28;20044;-90
2023/01/20 11:49:40;;;;;;;28.83;13.38;;;;;;;0.75;100.00;100707.72;6308405;28;20055;-90
2023/01/20 11:52:45;;;;;;;23.35;12.85;;;;;;;0.97;100.00;100716.25;6303759;28;20497;-90
2023/01/20 11:56:00;;;;;;;29.15;12.95;;;;;;;0.95;100.00;100719.75;6303257;28;20036;-89
2023/01/20 11:59:03;;;;;;;26.77;12.60;;;;;;;1.06;100.00;100725.28;6310498;28;20055;-91
2023/01/20 12:02:10;;;;;;;25.23;12.27;;;;;;;1.02;100.00;100719.47;6309529;28;20036;-90
2023/01/20 12:05:24;;;;;;;26.98;12.48;;;;;;;0.99;100.00;100724.66;6305181;28;20063;-91
2023/01/20 12:08:52;;;;;;;25.88;12.57;;;;;;;1.00;100.00;100723.78;6305308;28;20047;-90
2023/01/20 12:12:27;;;;;;;24.25;12.38;;;;;;;1.01;100.00;100727.16;6300270;28;20041;-90
2023/01/20 12:15:34;;;;;;;26.85;12.90;;;;;;;1.07;100.00;100724.41;6286420;28;20285;-90
2023/01/20 12:18:46;;;;;;;26.65;12.80;;;;;;;1.18;100.00;100729.09;6292702;28;20040;-90
2023/01/20 12:22:11;;;;;;;25.58;12.20;;;;;;;1.21;100.00;100726.44;6290357;28;20036;-88
2023/01/20 12:25:18;;;;;;;22.83;11.55;;;;;;;1.34;100.00;100734.47;6292944;28;20040;-88
2023/01/20 12:29:07;;;;;;;24.20;11.88;;;;;;;1.46;100.00;100737.38;6292790;28;20051;-88
2023/01/20 12:32:09;;;;;;;26.60;12.75;;;;;;;1.57;100.00;100746.38;6287507;28;20045;-89
2023/01/20 12:35:14;;;;;;;30.45;11.13;;;;;;;1.57;100.00;100748.91;6291743;28;20383;-89
2023/01/20 12:38:18;;;;;;;22.80;11.43;;;;;;;1.60;100.00;100748.78;6294685;28;20109;-89
2023/01/20 12:42:04;;;;;;;24.83;11.50;;;;;;;1.58;100.00;100750.56;6295156;28;20134;-89
2023/01/20 12:45:31;;;;;;;23.45;10.65;;;;;;;1.45;100.00;100742.56;6191364;28;20609;-89
2023/01/20 12:49:11;;;;;;;23.25;10.80;;;;;;;1.43;100.00;100744.31;6192561;28;20058;-89
2023/01/20 12:52:37;;;;;;;20.08;10.45;;;;;;;1.57;100.00;100746.38;6181809;28;20042;-89
2023/01/20 12:56:05;;;;;;;21.85;10.82;;;;;;;1.66;100.00;100751.91;6189243;28;20058;-89
2023/01/20 12:59:17;;;;;;;23.25;11.02;;;;;;;1.75;100.00;100750.75;6187302;28;20594;-89
2023/01/20 13:02:36;;;;;;;21.42;10.95;;;;;;;1.72;100.00;100758.53;6193417;28;20053;-89
2023/01/20 13:06:11;;;;;;;20.42;10.00;;;;;;;1.77;100.00;100745.59;6196746;28;20681;-89
2023/01/20 13:09:31;;;;;;;15.88;9.02;;;;;;;1.87;100.00;100754.56;6274496;28;20396;-89
2023/01/20 13:13:01;;;;;;;17.50;9.73;;;;;;;1.96;100.00;100754.16;6293205;28;20319;-89
2023/01/20 13:16:14;;;;;;;17.00;10.32;;;;;;;2.09;100.00;100764.75;6297078;28;20044;-89
2023/01/20 13:19:28;;;;;;;22.08;10.68;;;;;;;2.18;100.00;100763.53;6291623;28;20260;-90
2023/01/20 13:22:30;;;;;;;21.35;11.13;;;;;;;2.20;100.00;100762.59;6290048;28;20041;-90
2023/01/20 13:25:34;;;;;;;19.23;9.65;;;;;;;2.18;100.00;100761.00;6299689;28;20819;-91
2023/01/20 13:28:35;;;;;;;18.90;10.35;;;;;;;2.01;100.00;100762.47;6291391;28;20555;-90
2023/01/20 13:31:44;;;;;;;17.30;9.35;;;;;;;2.02;100.00;100763.34;6302014;28;20051;-90
2023/01/20 13:34:46;;;;;;;20.65;10.95;;;;;;;2.10;100.00;100772.34;6284400;28;20048;-91
2023/01/20 13:37:51;;;;;;;23.65;10.88;;;;;;;2.07;100.00;100771.63;6300546;28;20055;-91
2023/01/20 13:40:54;;;;;;;23.75;11.60;;;;;;;1.88;100.00;100776.63;6290978;28;20083;-90
2023/01/20 13:43:56;;;;;;;24.73;11.77;;;;;;;1.82;100.00;100782.81;6289522;28;20048;-91
2023/01/20 13:46:58;;;;;;;18.52;10.02;;;;;;;1.73;100.00;100780.59;6295458;28;20043;-91
2023/01/20 13:50:21;;;;;;;23.88;11.18;;;;;;;1.66;100.00;100789.38;6296141;28;20523;-91
2023/01/20 13:53:26;;;;;;;22.38;11.20;;;;;;;1.53;100.00;100793.28;6303521;28;20047;-91
2023/01/20 13:56:49;;;;;;;24.13;11.52;;;;;;;1.41;100.00;100787.72;6306642;28;20090;-91
2023/01/20 13:59:50;;;;;;;18.60;9.98;;;;;;;1.44;100.00;100792.75;6295747;28;20055;-91
2023/01/20 14:02:52;;;;;;;16.58;9.63;;;;;;;1.45;100.00;100798.66;6300976;28;20048;-90
2023/01/20 14:06:02;;;;;;;22.20;9.98;;;;;;;1.39;100.00;100804.84;6297372;28;20040;-90
2023/01/20 14:09:10;;;;;;;18.10;9.48;;;;;;;1.26;100.00;100806.13;6296050;28;20040;-90
2023/01/20 14:12:12;;;;;;;18.20;9.15;;;;;;;1.19;100.00;100810.66;6296282;28;20085;-90
2023/01/20 14:15:41;;;;;;;17.75;9.55;;;;;;;1.03;100.00;100806.97;6300960;28;20418;-90